createdAt,value
2022-10-28T00:01:26.837Z,72.77
2022-10-28T00:03:29.514Z,72.73
2022-10-28T00:05:34.786Z,72.73
2022-10-28T00:07:38.728Z,72.58
2022-10-28T00:09:41.321Z,72.13
2022-10-28T00:11:43.887Z,72.10
2022-10-28T00:13:47.320Z,72.33
2022-10-28T00:15:49.882Z,72.15
2022-10-28T00:17:52.939Z,72.32
2022-10-28T00:19:55.667Z,72.07
2022-10-28T00:21:58.253Z,72.43
2022-10-28T00:24:02.284Z,72.52
2022-10-28T00:26:09.712Z,72.22
2022-10-28T00:28:12.282Z,72.09
2022-10-28T00:30:14.879Z,72.39
2022-10-28T00:32:17.514Z,72.62
2022-10-28T00:34:22.495Z,72.33
2022-10-28T00:36:27.136Z,72.41
2022-10-28T00:38:31.585Z,72.43
2022-10-28T00:40:36.808Z,72.51
2022-10-28T00:42:39.395Z,72.21
2022-10-28T00:44:52.870Z,72.32
2022-10-28T00:46:55.450Z,72.64
2022-10-28T00:49:03.031Z,72.79
2022-10-28T00:51:06.232Z,73.23
2022-10-28T00:53:12.328Z,73.20
2022-10-28T00:55:18.843Z,73.14
2022-10-28T00:57:29.680Z,73.13
2022-10-28T00:59:34.892Z,73.06
2022-10-28T01:01:40.417Z,73.06
2022-10-28T01:03:43.208Z,72.88
2022-10-28T01:05:48.997Z,72.71
2022-10-28T01:07:53.298Z,72.61
2022-10-28T01:09:56.194Z,72.73
2022-10-28T01:12:06.470Z,73.09
2022-10-28T01:14:40.401Z,72.99
2022-10-28T01:16:52.639Z,72.83
2022-10-28T01:19:09.099Z,72.75
2022-10-28T01:21:44.415Z,72.53
2022-10-28T01:24:01.187Z,73.03
2022-10-28T01:26:39.607Z,72.84
2022-10-28T01:29:15.768Z,72.90
2022-10-28T01:31:29.606Z,72.92
2022-10-28T01:33:37.500Z,73.00
2022-10-28T01:35:48.465Z,72.96
2022-10-28T01:38:08.475Z,72.78
2022-10-28T01:40:19.984Z,72.70
2022-10-28T01:42:31.065Z,72.97
2022-10-28T01:44:41.324Z,72.85
2022-10-28T01:46:51.043Z,73.04
2022-10-28T01:48:58.459Z,73.26
2022-10-28T01:51:04.285Z,73.52
2022-10-28T01:53:10.625Z,73.30
2022-10-28T01:55:19.573Z,73.50
2022-10-28T01:57:26.417Z,73.42
2022-10-28T01:59:31.689Z,73.34
2022-10-28T02:01:35.572Z,73.04
2022-10-28T02:03:39.977Z,73.00
2022-10-28T02:05:45.197Z,73.09
2022-10-28T02:07:48.814Z,73.17
2022-10-28T02:10:02.216Z,73.30
2022-10-28T02:12:23.665Z,73.28
2022-10-28T02:14:38.909Z,73.22
2022-10-28T02:16:49.032Z,73.13
2022-10-28T02:19:03.027Z,73.22
2022-10-28T02:21:12.010Z,73.15
2022-10-28T02:23:22.648Z,73.13
2022-10-28T02:25:32.867Z,72.82
2022-10-28T02:27:43.649Z,73.02
2022-10-28T02:29:54.157Z,72.80
2022-10-28T02:32:01.581Z,72.92
2022-10-28T02:34:11.053Z,73.18
2022-10-28T02:36:17.373Z,73.18
2022-10-28T02:38:26.040Z,73.11
2022-10-28T02:40:31.811Z,73.01
2022-10-28T02:42:38.513Z,72.93
2022-10-28T02:44:46.273Z,73.08
2022-10-28T02:46:51.641Z,73.37
2022-10-28T02:48:57.314Z,73.33
2022-10-28T02:51:08.253Z,73.22
2022-10-28T02:53:14.817Z,73.04
2022-10-28T02:55:17.669Z,73.42
2022-10-28T02:57:24.664Z,73.35
2022-10-28T02:59:27.316Z,73.53
2022-10-28T03:01:29.987Z,73.60
2022-10-28T03:03:32.777Z,74.09
2022-10-28T03:05:35.355Z,74.47
2022-10-28T03:07:39.245Z,74.79
2022-10-28T03:09:41.796Z,74.84
2022-10-28T03:11:44.427Z,74.76
2022-10-28T03:13:47.053Z,74.56
2022-10-28T03:15:49.644Z,74.54
2022-10-28T03:17:52.442Z,74.85
2022-10-28T03:19:55.236Z,74.82
2022-10-28T03:21:57.824Z,74.58
2022-10-28T03:24:01.729Z,74.61
2022-10-28T03:26:04.428Z,74.68
2022-10-28T03:28:06.995Z,74.78
2022-10-28T03:30:10.279Z,74.75
2022-10-28T03:32:12.884Z,74.64
2022-10-28T03:34:15.553Z,74.64
2022-10-28T03:36:18.115Z,75.10
2022-10-28T03:38:20.661Z,74.78
2022-10-28T03:40:24.589Z,75.20
2022-10-28T03:42:27.138Z,75.37
2022-10-28T03:44:29.747Z,75.71
2022-10-28T03:46:35.193Z,75.91
2022-10-28T03:48:38.752Z,76.24
2022-10-28T03:50:41.351Z,76.41
2022-10-28T03:52:44.594Z,76.36
2022-10-28T03:54:47.124Z,76.58
2022-10-28T03:56:51.041Z,76.19
2022-10-28T03:58:53.637Z,75.89
2022-10-28T04:00:56.960Z,75.96
2022-10-28T04:02:59.589Z,76.11
2022-10-28T04:05:02.117Z,76.29
2022-10-28T04:07:04.729Z,76.12
2022-10-28T04:09:07.377Z,76.21
2022-10-28T04:11:09.929Z,76.13
2022-10-28T04:13:14.316Z,75.99
2022-10-28T04:15:16.967Z,76.27
2022-10-28T04:17:19.558Z,76.24
2022-10-28T04:19:22.091Z,76.49
2022-10-28T04:21:24.707Z,76.96
2022-10-28T04:23:27.323Z,77.09
2022-10-28T04:25:30.340Z,77.15
2022-10-28T04:27:32.934Z,77.22
2022-10-28T04:29:37.154Z,77.30
2022-10-28T04:31:39.710Z,77.30
2022-10-28T04:33:42.581Z,77.33
2022-10-28T04:35:45.843Z,77.35
2022-10-28T04:37:48.454Z,77.13
2022-10-28T04:39:51.054Z,77.11
2022-10-28T04:41:53.733Z,77.16
2022-10-28T04:43:56.331Z,77.14
2022-10-28T04:46:05.783Z,77.23
2022-10-28T04:48:10.407Z,77.41
2022-10-28T04:50:13.033Z,77.71
2022-10-28T04:52:15.980Z,77.63
2022-10-28T04:54:18.657Z,77.75
2022-10-28T04:56:21.334Z,77.67
2022-10-28T04:58:25.177Z,77.45
2022-10-28T05:00:29.212Z,77.76
2022-10-28T05:02:33.189Z,77.79
2022-10-28T05:04:35.814Z,77.86
2022-10-28T05:06:38.674Z,78.03
2022-10-28T05:08:41.240Z,77.93
2022-10-28T05:10:45.145Z,78.05
2022-10-28T05:12:47.689Z,78.00
2022-10-28T05:14:53.067Z,77.95
2022-10-28T05:16:55.850Z,77.98
2022-10-28T05:19:00.030Z,77.75
2022-10-28T05:21:02.696Z,77.28
2022-10-28T05:23:05.402Z,77.20
2022-10-28T05:25:08.587Z,76.96
2022-10-28T05:27:12.436Z,76.43
2022-10-28T05:29:15.130Z,76.24
2022-10-28T05:31:17.714Z,76.36
2022-10-28T05:33:20.433Z,76.49
2022-10-28T05:35:24.366Z,76.59
2022-10-28T05:37:26.901Z,76.90
2022-10-28T05:39:29.480Z,77.04
2022-10-28T05:41:35.175Z,76.75
2022-10-28T05:43:40.346Z,76.59
2022-10-28T05:45:43.004Z,77.11
2022-10-28T05:47:46.575Z,76.81
2022-10-28T05:49:49.173Z,77.03
2022-10-28T05:51:53.110Z,77.10
2022-10-28T05:53:55.658Z,77.02
2022-10-28T05:55:58.276Z,76.82
2022-10-28T05:58:00.852Z,76.37
2022-10-28T06:00:05.022Z,76.62
2022-10-28T06:02:07.637Z,76.70
2022-10-28T06:04:10.219Z,76.86
2022-10-28T06:06:12.797Z,76.89
2022-10-28T06:08:16.857Z,76.82
2022-10-28T06:10:19.468Z,76.91
2022-10-28T06:12:20.561Z,76.99
2022-10-28T06:14:23.219Z,76.99
2022-10-28T06:16:25.771Z,77.17
2022-10-28T06:18:28.329Z,77.56
2022-10-28T06:20:30.925Z,77.33
2022-10-28T06:22:33.463Z,77.09
2022-10-28T06:24:37.413Z,77.24
2022-10-28T06:26:40.124Z,77.25
2022-10-28T06:28:42.688Z,77.31
2022-10-28T06:30:45.282Z,77.62
2022-10-28T06:32:47.873Z,77.77
2022-10-28T06:34:50.435Z,77.80
2022-10-28T06:36:52.966Z,77.66
2022-10-28T06:38:55.556Z,77.80
2022-10-28T06:40:59.721Z,77.83
2022-10-28T06:43:04.893Z,78.05
2022-10-28T06:45:08.146Z,78.16
2022-10-28T06:47:12.596Z,78.41
2022-10-28T06:49:15.203Z,78.38
2022-10-28T06:51:17.944Z,78.18
2022-10-28T06:53:20.493Z,78.20
2022-10-28T06:55:23.033Z,78.40
2022-10-28T06:57:29.179Z,78.52
2022-10-28T06:59:32.033Z,78.51
2022-10-28T07:01:34.746Z,78.60
2022-10-28T07:03:37.460Z,78.62
2022-10-28T07:05:40.081Z,78.71
2022-10-28T07:07:42.664Z,78.75
2022-10-28T07:09:45.486Z,78.87
2022-10-28T07:11:54.791Z,79.01
2022-10-28T07:13:59.319Z,78.65
2022-10-28T07:16:02.493Z,78.78
2022-10-28T07:18:05.343Z,78.70
2022-10-28T07:20:09.113Z,78.58
2022-10-28T07:22:11.668Z,78.43
2022-10-28T07:24:14.333Z,78.43
2022-10-28T07:26:16.947Z,78.51
2022-10-28T07:28:19.554Z,78.49
2022-10-28T07:30:23.569Z,78.21
2022-10-28T07:32:26.170Z,78.25
2022-10-28T07:34:28.758Z,78.11
2022-10-28T07:36:31.434Z,77.88
2022-10-28T07:38:34.471Z,77.92
2022-10-28T07:40:37.083Z,77.77
2022-10-28T07:42:39.757Z,77.80
2022-10-28T07:44:42.350Z,77.72
2022-10-28T07:46:46.276Z,77.41
2022-10-28T07:48:51.446Z,77.29
2022-10-28T07:50:54.495Z,77.44
2022-10-28T07:53:00.408Z,77.36
2022-10-28T07:55:03.031Z,77.25
2022-10-28T07:57:07.266Z,77.27
2022-10-28T07:59:09.867Z,77.44
2022-10-28T08:01:14.785Z,77.75
2022-10-28T08:03:19.038Z,78.09
2022-10-28T08:05:21.669Z,78.42
2022-10-28T08:07:24.318Z,78.69
2022-10-28T08:09:26.865Z,78.28
2022-10-28T08:11:29.459Z,77.75
2022-10-28T08:13:35.716Z,76.07
2022-10-28T08:15:39.405Z,74.79
2022-10-28T08:17:41.970Z,74.60
2022-10-28T08:19:45.909Z,74.65
2022-10-28T08:21:48.512Z,75.10
2022-10-28T08:23:51.408Z,75.48
2022-10-28T08:25:54.087Z,75.67
2022-10-28T08:27:58.270Z,75.67
2022-10-28T08:30:00.843Z,75.97
2022-10-28T08:32:03.410Z,76.12
2022-10-28T08:34:06.647Z,76.21
2022-10-28T08:36:12.585Z,76.47
2022-10-28T08:38:17.146Z,76.71
2022-10-28T08:40:25.210Z,76.86
2022-10-28T08:42:40.260Z,77.08
2022-10-28T08:44:59.351Z,76.76
2022-10-28T08:47:14.690Z,76.55
2022-10-28T08:49:20.370Z,76.39
2022-10-28T08:51:35.303Z,76.27
2022-10-28T08:53:42.576Z,75.51
2022-10-28T08:55:48.083Z,75.01
2022-10-28T08:57:54.925Z,72.97
2022-10-28T08:59:58.393Z,72.99
2022-10-28T09:02:04.366Z,72.63
2022-10-28T09:04:17.255Z,72.16
2022-10-28T09:06:23.869Z,72.17
2022-10-28T09:08:29.296Z,71.98
2022-10-28T09:11:02.546Z,71.77
2022-10-28T09:13:12.676Z,71.88
2022-10-28T09:15:27.954Z,71.96
2022-10-28T09:17:38.073Z,72.17
2022-10-28T09:19:48.576Z,72.12
2022-10-28T09:22:02.339Z,71.96
2022-10-28T09:24:15.688Z,71.36
2022-10-28T09:26:25.247Z,71.27
2022-10-28T09:28:40.154Z,71.32
2022-10-28T09:30:51.144Z,70.91
2022-10-28T09:33:02.147Z,70.23
2022-10-28T09:35:09.995Z,69.75
2022-10-28T09:37:19.013Z,69.17
2022-10-28T09:39:28.184Z,69.14
2022-10-28T09:41:34.489Z,68.95
2022-10-28T09:43:41.887Z,69.32
2022-10-28T09:45:47.863Z,69.54
2022-10-28T09:47:57.683Z,70.13
2022-10-28T09:50:04.350Z,70.65
2022-10-28T09:52:16.585Z,70.94
2022-10-28T09:54:22.997Z,70.66
2022-10-28T09:56:26.779Z,71.15
2022-10-28T09:58:29.436Z,71.54
2022-10-28T10:00:32.508Z,71.64
2022-10-28T10:02:36.105Z,71.93
2022-10-28T10:04:38.822Z,72.01
2022-10-28T10:06:42.780Z,72.30
2022-10-28T10:08:47.175Z,72.58
2022-10-28T10:10:53.765Z,71.88
2022-10-28T10:13:00.066Z,72.25
2022-10-28T10:15:08.059Z,72.46
2022-10-28T10:17:15.169Z,72.44
2022-10-28T10:19:17.726Z,72.55
2022-10-28T10:21:48.370Z,73.01
2022-10-28T10:23:50.951Z,73.11
2022-10-28T10:25:59.255Z,73.00
2022-10-28T10:28:03.561Z,72.73
2022-10-28T10:30:18.436Z,72.43
2022-10-28T10:32:25.914Z,72.50
2022-10-28T10:34:30.091Z,72.08
2022-10-28T10:36:33.116Z,70.98
2022-10-28T10:38:40.055Z,70.67
2022-10-28T10:40:50.279Z,70.79
2022-10-28T10:43:13.143Z,71.01
2022-10-28T10:45:22.816Z,71.29
2022-10-28T10:47:25.368Z,71.64
2022-10-28T10:49:28.974Z,71.85
2022-10-28T10:51:31.517Z,71.80
2022-10-28T10:53:35.791Z,71.65
2022-10-28T10:55:41.425Z,71.23
2022-10-28T10:57:48.421Z,70.99
2022-10-28T10:59:53.536Z,70.70
2022-10-28T11:01:58.006Z,70.58
2022-10-28T11:04:03.198Z,70.78
2022-10-28T11:06:22.995Z,70.75
2022-10-28T11:08:35.039Z,71.19
2022-10-28T11:10:38.938Z,71.68
2022-10-28T11:12:52.660Z,71.83
2022-10-28T11:14:58.283Z,72.15
2022-10-28T11:17:02.613Z,72.03
2022-10-28T11:19:20.461Z,72.38
2022-10-28T11:21:43.036Z,72.30
2022-10-28T11:23:56.925Z,72.17
2022-10-28T11:26:04.733Z,72.66
2022-10-28T11:28:25.721Z,72.61
2022-10-28T11:30:41.571Z,72.98
2022-10-28T11:33:08.047Z,73.41
2022-10-28T11:35:34.280Z,73.92
2022-10-28T11:37:52.725Z,74.08
2022-10-28T11:40:13.289Z,74.55
2022-10-28T11:42:28.732Z,74.57
2022-10-28T11:44:41.788Z,74.58
2022-10-28T11:46:51.412Z,74.54
2022-10-28T11:49:18.528Z,74.30
2022-10-28T11:51:35.221Z,74.40
2022-10-28T11:53:52.126Z,74.40
2022-10-28T11:56:00.379Z,74.36
2022-10-28T11:58:16.786Z,74.48
2022-10-28T12:00:33.900Z,74.83
2022-10-28T12:02:54.419Z,75.60
2022-10-28T12:05:04.691Z,75.78
2022-10-28T12:07:20.881Z,76.24
2022-10-28T12:09:30.193Z,76.67
2022-10-28T12:11:46.091Z,77.05
2022-10-28T12:13:59.556Z,77.51
2022-10-28T12:16:09.644Z,78.22
2022-10-28T12:18:20.182Z,78.59
2022-10-28T12:20:27.635Z,79.08
2022-10-28T12:22:35.000Z,79.25
2022-10-28T12:24:40.171Z,79.69
2022-10-28T12:26:46.394Z,79.51
2022-10-28T12:28:54.782Z,79.17
2022-10-28T12:30:58.303Z,78.96
2022-10-28T12:33:07.754Z,78.81
2022-10-28T12:35:18.375Z,78.72
2022-10-28T12:37:24.364Z,78.96
2022-10-28T12:39:30.910Z,79.23
2022-10-28T12:41:48.503Z,79.57
2022-10-28T12:43:58.263Z,79.49
2022-10-28T12:46:01.432Z,79.46
2022-10-28T12:48:15.993Z,79.80
2022-10-28T12:50:24.676Z,79.93
2022-10-28T12:52:34.388Z,80.18
2022-10-28T12:54:54.080Z,79.61
2022-10-28T12:57:04.932Z,78.99
2022-10-28T12:59:15.062Z,77.67
2022-10-28T13:01:20.584Z,76.73
2022-10-28T13:03:23.329Z,75.71
2022-10-28T13:05:31.653Z,75.08
2022-10-28T13:08:00.258Z,74.65
2022-10-28T13:10:16.696Z,74.09
2022-10-28T13:12:47.065Z,73.61
2022-10-28T13:15:22.904Z,73.46
2022-10-28T13:17:40.931Z,73.46
2022-10-28T13:20:02.291Z,73.32
2022-10-28T13:22:25.224Z,73.16
2022-10-28T13:24:34.798Z,73.28
2022-10-28T13:26:42.131Z,73.41
2022-10-28T13:28:47.459Z,73.93
2022-10-28T13:30:57.137Z,74.09
2022-10-28T13:33:06.284Z,74.11
2022-10-28T13:35:16.160Z,73.72
2022-10-28T13:37:22.030Z,73.73
2022-10-28T13:39:27.047Z,74.12
2022-10-28T13:41:36.848Z,74.21
2022-10-28T13:44:13.203Z,74.28
2022-10-28T13:46:56.070Z,74.35
2022-10-28T13:49:24.216Z,74.22
2022-10-28T13:51:32.422Z,73.99
2022-10-28T13:53:40.612Z,74.12
2022-10-28T13:55:44.893Z,74.19
2022-10-28T13:57:49.482Z,74.22
2022-10-28T13:59:56.752Z,74.42
2022-10-28T14:02:33.918Z,74.59
2022-10-28T14:04:39.876Z,74.33
2022-10-28T14:06:42.541Z,73.66
2022-10-28T14:08:45.156Z,73.42
2022-10-28T14:11:00.972Z,73.53
2022-10-28T14:13:06.480Z,73.62
2022-10-28T14:15:21.999Z,73.55
2022-10-28T14:17:30.009Z,73.08
2022-10-28T14:19:33.053Z,72.51
2022-10-28T14:21:48.108Z,71.60
2022-10-28T14:24:15.884Z,70.43
2022-10-28T14:26:18.502Z,69.59
2022-10-28T14:28:53.061Z,69.19
2022-10-28T14:31:28.952Z,68.91
2022-10-28T14:33:32.955Z,68.88
2022-10-28T14:35:41.650Z,69.01
2022-10-28T14:38:13.577Z,69.01
2022-10-28T14:40:24.704Z,69.30
2022-10-28T14:42:52.334Z,69.74
2022-10-28T14:45:13.545Z,70.49
2022-10-28T14:47:41.782Z,70.68
2022-10-28T14:49:58.701Z,70.94
2022-10-28T14:52:09.154Z,71.51
2022-10-28T14:54:17.295Z,71.95
2022-10-28T14:56:24.935Z,72.19
2022-10-28T14:58:31.632Z,72.40
2022-10-28T15:00:40.378Z,71.26
2022-10-28T15:02:43.343Z,70.53
2022-10-28T15:04:49.679Z,70.25
2022-10-28T15:06:53.156Z,70.34
2022-10-28T15:08:56.845Z,71.24
2022-10-28T15:10:59.462Z,72.41
2022-10-28T15:13:03.562Z,73.53
2022-10-28T15:15:17.924Z,74.73
2022-10-28T15:17:23.255Z,75.66
2022-10-28T15:19:27.909Z,76.45
2022-10-28T15:21:31.837Z,77.23
2022-10-28T15:23:35.327Z,77.70
2022-10-28T15:25:37.925Z,78.01
2022-10-28T15:27:42.753Z,78.26
2022-10-28T15:29:45.503Z,78.38
2022-10-28T15:32:16.419Z,78.38
2022-10-28T15:34:21.946Z,78.63
2022-10-28T15:36:26.809Z,78.98
2022-10-28T15:38:41.004Z,78.93
2022-10-28T15:40:43.658Z,79.25
2022-10-28T15:42:52.491Z,79.33
2022-10-28T15:44:56.352Z,79.75
2022-10-28T15:47:00.650Z,79.88
2022-10-28T15:49:03.449Z,79.79
2022-10-28T15:51:13.685Z,80.00
2022-10-28T15:53:39.925Z,80.42
2022-10-28T15:56:06.623Z,80.47
2022-10-28T15:58:32.629Z,80.52
2022-10-28T16:00:35.462Z,80.78
2022-10-28T16:02:42.465Z,80.91
2022-10-28T16:04:47.864Z,81.12
2022-10-28T16:06:52.829Z,80.83
2022-10-28T16:09:15.483Z,80.55
2022-10-28T16:11:21.028Z,80.39
2022-10-28T16:13:27.647Z,80.36
2022-10-28T16:15:30.409Z,80.58
2022-10-28T16:17:37.441Z,80.73
2022-10-28T16:19:43.318Z,80.90
2022-10-28T16:21:46.026Z,80.89
2022-10-28T16:23:51.859Z,81.19
2022-10-28T16:25:55.821Z,80.89
2022-10-28T16:27:58.510Z,80.89
2022-10-28T16:30:01.155Z,80.87
2022-10-28T16:32:03.813Z,81.25
2022-10-28T16:34:06.435Z,81.14
2022-10-28T16:36:09.535Z,81.23
2022-10-28T16:38:14.683Z,81.44
2022-10-28T16:40:45.727Z,81.37
2022-10-28T16:42:42.538Z,81.31
2022-10-28T16:44:45.183Z,80.87
2022-10-28T16:46:47.821Z,80.28
2022-10-28T16:48:50.406Z,79.81
2022-10-28T16:50:54.519Z,79.30
2022-10-28T16:52:57.176Z,78.79
2022-10-28T16:54:59.906Z,78.18
2022-10-28T16:57:02.510Z,77.08
2022-10-28T16:59:06.473Z,76.57
2022-10-28T17:01:09.762Z,75.77
2022-10-28T17:03:15.093Z,74.59
2022-10-28T17:05:20.604Z,72.92
2022-10-28T17:07:23.417Z,72.28
2022-10-28T17:09:26.028Z,71.74
2022-10-28T17:11:28.656Z,70.44
2022-10-28T17:13:31.775Z,69.99
2022-10-28T17:15:35.943Z,69.09
2022-10-28T17:17:38.553Z,68.80
2022-10-28T17:19:42.005Z,68.13
2022-10-28T17:21:44.624Z,67.02
2022-10-28T17:23:47.203Z,66.74
2022-10-28T17:25:56.953Z,65.76
2022-10-28T17:27:59.526Z,65.13
2022-10-28T17:30:02.219Z,65.36
2022-10-28T17:32:08.712Z,65.39
2022-10-28T17:34:11.431Z,64.82
2022-10-28T17:36:14.033Z,64.87
2022-10-28T17:38:16.604Z,64.50
2022-10-28T17:40:19.170Z,63.70
2022-10-28T17:42:21.772Z,63.77
2022-10-28T17:44:24.342Z,63.10
2022-10-28T17:46:26.902Z,63.31
2022-10-28T17:48:30.819Z,62.66
2022-10-28T17:50:36.332Z,62.42
2022-10-28T17:52:38.897Z,62.44
2022-10-28T17:54:41.508Z,62.31
2022-10-28T17:56:45.292Z,62.47
2022-10-28T17:58:47.929Z,62.39
2022-10-28T18:00:50.674Z,62.57
2022-10-28T18:02:56.197Z,62.22
2022-10-28T18:05:00.229Z,62.51
2022-10-28T18:07:02.792Z,62.97
2022-10-28T18:09:05.536Z,62.84
2022-10-28T18:11:09.880Z,63.16
2022-10-28T18:13:12.480Z,63.34
2022-10-28T18:15:15.131Z,63.79
2022-10-28T18:17:17.982Z,64.04
2022-10-28T18:19:20.595Z,64.60
2022-10-28T18:21:25.332Z,64.87
2022-10-28T18:23:28.161Z,65.16
2022-10-28T18:25:30.808Z,65.44
2022-10-28T18:27:33.406Z,65.70
2022-10-28T18:29:35.951Z,65.87
2022-10-28T18:31:40.534Z,66.07
2022-10-28T18:33:44.207Z,66.28
2022-10-28T18:37:56.202Z,66.80
2022-10-28T18:39:59.063Z,66.84
2022-10-28T18:42:01.634Z,67.27
2022-10-28T18:44:05.922Z,67.55
2022-10-28T18:46:08.967Z,68.64
2022-10-28T18:48:11.539Z,68.91
2022-10-28T18:50:14.120Z,69.23
2022-10-28T18:52:16.695Z,69.57
2022-10-28T18:54:20.584Z,69.40
2022-10-28T18:56:24.956Z,69.86
2022-10-28T18:58:27.796Z,70.14
2022-10-28T19:00:30.375Z,70.27
2022-10-28T19:02:33.019Z,70.48
2022-10-28T19:04:35.760Z,70.40
2022-10-28T19:06:40.914Z,70.65
2022-10-28T19:08:44.748Z,70.61
2022-10-28T19:10:49.526Z,70.95
2022-10-28T19:12:54.537Z,70.83
2022-10-28T19:14:57.135Z,71.08
2022-10-28T19:16:59.751Z,71.05
2022-10-28T19:19:04.438Z,71.59
2022-10-28T19:21:10.679Z,71.47
2022-10-28T19:23:15.390Z,71.84
2022-10-28T19:25:18.040Z,71.58
2022-10-28T19:27:22.096Z,71.74
2022-10-28T19:29:24.800Z,71.79
2022-10-28T19:31:28.446Z,71.78
2022-10-28T19:33:32.269Z,71.86
2022-10-28T19:35:35.269Z,72.08
2022-10-28T19:37:38.019Z,71.99
2022-10-28T19:39:40.698Z,72.13
2022-10-28T19:41:43.567Z,72.06
2022-10-28T19:43:48.652Z,71.95
2022-10-28T19:45:52.349Z,71.98
2022-10-28T19:47:55.209Z,71.79
2022-10-28T19:49:58.475Z,71.46
2022-10-28T19:52:01.085Z,71.26
2022-10-28T19:54:05.879Z,71.28
2022-10-28T19:56:11.515Z,70.90
2022-10-28T19:58:14.302Z,70.81
2022-10-28T20:00:18.818Z,70.88
2022-10-28T20:02:21.695Z,70.77
2022-10-28T20:04:24.405Z,70.72
2022-10-28T20:06:28.260Z,70.63
2022-10-28T20:08:31.114Z,70.02
2022-10-28T20:10:33.936Z,70.00
2022-10-28T20:12:36.643Z,69.97
2022-10-28T20:14:39.240Z,69.71
2022-10-28T20:16:45.218Z,69.70
2022-10-28T20:18:47.792Z,69.63
2022-10-28T20:20:50.530Z,69.48
2022-10-28T20:22:53.094Z,69.57
2022-10-28T20:24:55.743Z,69.45
2022-10-28T20:26:58.380Z,69.24
2022-10-28T20:29:01.893Z,69.13
2022-10-28T20:31:07.386Z,69.08
2022-10-28T20:33:14.354Z,69.36
2022-10-28T20:35:17.185Z,69.45
2022-10-28T20:37:19.767Z,69.38
2022-10-28T20:39:22.822Z,69.28
2022-10-28T20:41:26.551Z,69.31
2022-10-28T20:43:30.559Z,69.14
2022-10-28T20:45:33.087Z,68.96
2022-10-28T20:47:35.649Z,69.04
2022-10-28T20:49:42.637Z,68.99
2022-10-28T20:51:45.340Z,68.83
2022-10-28T20:53:48.083Z,68.79
2022-10-28T20:55:52.219Z,68.68
2022-10-28T20:57:54.975Z,68.94
2022-10-28T20:59:57.518Z,68.55
2022-10-28T21:02:00.154Z,68.90
2022-10-28T21:04:05.646Z,69.09
2022-10-28T21:06:10.130Z,69.32
2022-10-28T21:08:13.171Z,69.56
2022-10-28T21:10:17.229Z,69.51
2022-10-28T21:12:19.809Z,69.31
2022-10-28T21:14:22.653Z,69.32
2022-10-28T21:16:26.393Z,69.52
2022-10-28T21:18:28.977Z,69.48
2022-10-28T21:20:32.096Z,69.62
2022-10-28T21:22:36.351Z,69.40
2022-10-28T21:24:39.034Z,69.59
2022-10-28T21:26:41.617Z,69.56
2022-10-28T21:28:45.029Z,69.89
2022-10-28T21:30:47.604Z,69.91
2022-10-28T21:32:50.303Z,70.09
2022-10-28T21:34:53.397Z,69.98
2022-10-28T21:36:55.990Z,70.34
2022-10-28T21:38:59.893Z,70.52
2022-10-28T21:41:04.691Z,70.54
2022-10-28T21:43:09.025Z,70.75
2022-10-28T21:45:11.740Z,71.05
2022-10-28T21:47:14.401Z,71.28
2022-10-28T21:49:17.083Z,71.25
2022-10-28T21:51:19.791Z,70.72
2022-10-28T21:53:22.442Z,70.96
2022-10-28T21:55:41.495Z,71.20
2022-10-28T21:57:49.014Z,71.18
2022-10-28T21:59:51.663Z,71.25
2022-10-28T22:01:54.455Z,71.44
2022-10-28T22:03:57.694Z,71.47
2022-10-28T22:06:00.292Z,71.50
2022-10-28T22:08:04.863Z,72.21
2022-10-28T22:10:08.514Z,72.33
2022-10-28T22:12:12.524Z,72.33
2022-10-28T22:14:15.791Z,72.35
2022-10-28T22:16:18.974Z,72.36
2022-10-28T22:18:21.553Z,72.49
2022-10-28T22:22:31.623Z,72.56
2022-10-28T22:24:34.167Z,72.70
2022-10-28T22:26:36.756Z,72.72
2022-10-28T22:28:41.025Z,72.84
2022-10-28T22:30:43.571Z,72.79
2022-10-28T22:32:46.159Z,72.54
2022-10-28T22:34:48.797Z,72.58
2022-10-28T22:36:51.335Z,72.50
2022-10-28T22:38:54.332Z,72.67
2022-10-28T22:41:03.652Z,72.36
2022-10-28T22:43:06.304Z,72.25
2022-10-28T22:45:10.883Z,72.07
2022-10-28T22:47:13.458Z,72.27
2022-10-28T22:49:16.073Z,72.23
2022-10-28T22:51:18.891Z,72.32
2022-10-28T22:53:21.439Z,72.36
2022-10-28T22:55:24.074Z,72.62
2022-10-28T22:57:26.674Z,72.63
2022-10-28T22:59:29.216Z,72.71
2022-10-28T23:01:33.920Z,72.66
2022-10-28T23:03:37.798Z,72.65
2022-10-28T23:05:40.878Z,72.63
2022-10-28T23:07:43.465Z,72.63
2022-10-28T23:09:46.054Z,72.63
2022-10-28T23:11:48.617Z,72.46
2022-10-28T23:13:52.312Z,72.51
2022-10-28T23:15:54.981Z,72.59
2022-10-28T23:17:58.977Z,72.42
2022-10-28T23:20:01.635Z,72.42
2022-10-28T23:22:04.198Z,72.33
2022-10-28T23:24:07.615Z,72.29
2022-10-28T23:26:11.722Z,72.22
2022-10-28T23:28:14.471Z,72.19
2022-10-28T23:30:20.195Z,72.17
2022-10-28T23:32:23.478Z,72.17
2022-10-28T23:34:28.220Z,72.28
2022-10-28T23:36:30.792Z,72.42
2022-10-28T23:38:33.704Z,72.26
2022-10-28T23:40:36.324Z,71.74
2022-10-28T23:42:38.888Z,71.41
2022-10-28T23:44:41.511Z,71.81
2022-10-28T23:46:44.108Z,72.16
2022-10-28T23:48:46.864Z,72.23
2022-10-28T23:50:51.319Z,72.33
2022-10-28T23:52:55.891Z,72.16
2022-10-28T23:54:58.642Z,72.03
2022-10-28T23:57:01.230Z,72.18
2022-10-28T23:59:03.782Z,71.92
